sensor_id;sensor_type;location;lat;lon;timestamp;pressure;altitude;pressure_sealevel;temperature;humidity
40596;BME280;26304;48.794;9.820;2022-09-17T00:00:56;95943.69;;;18.20;57.50
40596;BME280;26304;48.794;9.820;2022-09-17T00:06:40;95947.44;;;18.19;57.38
40596;BME280;26304;48.794;9.820;2022-09-17T00:12:22;95942.56;;;18.13;57.14
40596;BME280;26304;48.794;9.820;2022-09-17T00:18:05;95935.41;;;18.10;57.29
40596;BME280;26304;48.794;9.820;2022-09-17T00:23:52;95938.41;;;18.12;57.10
40596;BME280;26304;48.794;9.820;2022-09-17T00:29:35;95939.19;;;18.09;57.03
40596;BME280;26304;48.794;9.820;2022-09-17T00:35:20;95940.31;;;18.08;56.78
40596;BME280;26304;48.794;9.820;2022-09-17T00:41:05;95942.94;;;18.01;56.82
40596;BME280;26304;48.794;9.820;2022-09-17T00:46:48;95950.44;;;18.03;56.53
40596;BME280;26304;48.794;9.820;2022-09-17T00:52:33;95930.53;;;17.98;56.14
40596;BME280;26304;48.794;9.820;2022-09-17T00:58:20;95926.06;;;17.95;56.43
40596;BME280;26304;48.794;9.820;2022-09-17T01:04:03;95934.69;;;17.92;56.23
40596;BME280;26304;48.794;9.820;2022-09-17T01:09:53;95933.94;;;17.88;56.36
40596;BME280;26304;48.794;9.820;2022-09-17T01:15:42;95938.06;;;17.89;56.21
40596;BME280;26304;48.794;9.820;2022-09-17T01:28:06;95943.66;;;17.84;55.82
40596;BME280;26304;48.794;9.820;2022-09-17T01:33:58;95943.28;;;17.82;55.72
40596;BME280;26304;48.794;9.820;2022-09-17T01:39:47;95945.53;;;17.79;55.68
40596;BME280;26304;48.794;9.820;2022-09-17T01:45:34;95951.91;;;17.78;55.82
40596;BME280;26304;48.794;9.820;2022-09-17T01:51:23;95955.66;;;17.74;56.00
40596;BME280;26304;48.794;9.820;2022-09-17T01:57:08;95954.94;;;17.73;55.55
40596;BME280;26304;48.794;9.820;2022-09-17T02:02:58;95962.44;;;17.71;56.11
40596;BME280;26304;48.794;9.820;2022-09-17T02:08:46;95957.19;;;17.75;56.04
40596;BME280;26304;48.794;9.820;2022-09-17T02:14:34;95954.56;;;17.71;56.26
40596;BME280;26304;48.794;9.820;2022-09-17T02:20:23;95960.56;;;17.68;56.58
40596;BME280;26304;48.794;9.820;2022-09-17T02:26:14;95959.44;;;17.76;56.54
40596;BME280;26304;48.794;9.820;2022-09-17T02:31:57;95958.66;;;17.72;56.33
40596;BME280;26304;48.794;9.820;2022-09-17T02:37:40;95970.31;;;17.78;56.32
40596;BME280;26304;48.794;9.820;2022-09-17T02:43:29;95964.28;;;17.71;56.42
40596;BME280;26304;48.794;9.820;2022-09-17T02:49:31;95963.19;;;17.75;56.55
40596;BME280;26304;48.794;9.820;2022-09-17T02:55:22;95958.66;;;17.69;56.61
40596;BME280;26304;48.794;9.820;2022-09-17T03:01:13;95957.94;;;17.68;56.54
40596;BME280;26304;48.794;9.820;2022-09-17T03:06:57;95960.56;;;17.68;56.58
40596;BME280;26304;48.794;9.820;2022-09-17T03:12:40;95954.53;;;17.64;56.49
40596;BME280;26304;48.794;9.820;2022-09-17T03:18:24;95943.66;;;17.62;56.24
40596;BME280;26304;48.794;9.820;2022-09-17T03:24:06;95945.91;;;17.67;56.11
40596;BME280;26304;48.794;9.820;2022-09-17T03:29:49;95939.13;;;17.59;56.15
40596;BME280;26304;48.794;9.820;2022-09-17T03:35:32;95930.13;;;17.60;56.31
40596;BME280;26304;48.794;9.820;2022-09-17T03:41:15;95939.50;;;17.61;56.06
40596;BME280;26304;48.794;9.820;2022-09-17T03:46:57;95951.91;;;17.57;55.99
40596;BME280;26304;48.794;9.820;2022-09-17T03:52:41;95956.78;;;17.62;56.52
40596;BME280;26304;48.794;9.820;2022-09-17T03:58:24;95961.66;;;17.67;56.55
40596;BME280;26304;48.794;9.820;2022-09-17T04:04:06;95957.94;;;17.68;56.41
40596;BME280;26304;48.794;9.820;2022-09-17T04:09:50;95951.94;;;17.71;56.60
40596;BME280;26304;48.794;9.820;2022-09-17T04:15:32;95948.91;;;17.76;56.61
40596;BME280;26304;48.794;9.820;2022-09-17T04:21:15;95951.91;;;17.75;56.72
40596;BME280;26304;48.794;9.820;2022-09-17T04:26:59;95945.91;;;17.71;56.34
40596;BME280;26304;48.794;9.820;2022-09-17T04:32:42;95945.91;;;17.67;56.15
40596;BME280;26304;48.794;9.820;2022-09-17T04:38:25;95954.94;;;17.73;56.27
40596;BME280;26304;48.794;9.820;2022-09-17T04:44:09;95971.06;;;17.68;56.24
40596;BME280;26304;48.794;9.820;2022-09-17T04:49:51;95969.59;;;17.74;56.26
40596;BME280;26304;48.794;9.820;2022-09-17T04:55:33;95976.31;;;17.61;56.01
40596;BME280;26304;48.794;9.820;2022-09-17T05:01:17;95972.53;;;17.55;55.86
40596;BME280;26304;48.794;9.820;2022-09-17T05:06:59;95976.69;;;17.52;55.70
40596;BME280;26304;48.794;9.820;2022-09-17T05:12:46;95994.66;;;17.50;55.37
40596;BME280;26304;48.794;9.820;2022-09-17T05:18:30;95992.41;;;17.41;54.93
40596;BME280;26304;48.794;9.820;2022-09-17T05:24:12;95994.66;;;17.39;54.89
40596;BME280;26304;48.794;9.820;2022-09-17T05:29:55;96001.81;;;17.42;54.99
40596;BME280;26304;48.794;9.820;2022-09-17T05:35:38;96004.78;;;17.37;54.84
40596;BME280;26304;48.794;9.820;2022-09-17T05:41:21;96004.78;;;17.37;54.93
40596;BME280;26304;48.794;9.820;2022-09-17T05:47:04;95999.91;;;17.39;55.00
40596;BME280;26304;48.794;9.820;2022-09-17T05:52:47;96007.44;;;17.48;54.96
40596;BME280;26304;48.794;9.820;2022-09-17T05:58:30;96002.19;;;17.52;55.07
40596;BME280;26304;48.794;9.820;2022-09-17T06:04:14;96006.72;;;17.62;55.16
40596;BME280;26304;48.794;9.820;2022-09-17T06:09:59;96016.50;;;17.65;54.99
40596;BME280;26304;48.794;9.820;2022-09-17T06:15:42;96024.00;;;17.67;55.55
40596;BME280;26304;48.794;9.820;2022-09-17T06:21:24;96021.38;;;17.67;55.74
40596;BME280;26304;48.794;9.820;2022-09-17T06:27:09;96023.28;;;17.73;56.27
40596;BME280;26304;48.794;9.820;2022-09-17T06:32:51;96033.06;;;17.84;56.42
40596;BME280;26304;48.794;9.820;2022-09-17T06:38:35;96033.81;;;17.84;56.56
40596;BME280;26304;48.794;9.820;2022-09-17T06:44:19;96041.34;;;17.86;56.19
40596;BME280;26304;48.794;9.820;2022-09-17T06:50:01;96061.28;;;17.94;56.87
40596;BME280;26304;48.794;9.820;2022-09-17T06:55:44;96056.03;;;17.94;56.73
40596;BME280;26304;48.794;9.820;2022-09-17T07:01:27;96066.91;;;17.96;57.12
40596;BME280;26304;48.794;9.820;2022-09-17T07:07:10;96070.31;;;18.00;56.92
40596;BME280;26304;48.794;9.820;2022-09-17T07:12:52;96071.06;;;18.04;56.81
40596;BME280;26304;48.794;9.820;2022-09-17T07:18:36;96069.56;;;18.10;57.28
40596;BME280;26304;48.794;9.820;2022-09-17T07:24:19;96078.97;;;18.15;57.21
40596;BME280;26304;48.794;9.820;2022-09-17T07:30:03;96086.50;;;18.17;57.21
40596;BME280;26304;48.794;9.820;2022-09-17T07:35:52;96085.38;;;18.18;57.30
40596;BME280;26304;48.794;9.820;2022-09-17T07:41:35;96094.75;;;18.11;57.66
40596;BME280;26304;48.794;9.820;2022-09-17T07:47:17;96104.53;;;18.18;57.37
40596;BME280;26304;48.794;9.820;2022-09-17T07:53:01;96095.13;;;18.17;57.50
40596;BME280;26304;48.794;9.820;2022-09-17T07:58:44;96096.28;;;18.16;57.38
40596;BME280;26304;48.794;9.820;2022-09-17T08:04:26;96106.06;;;18.23;57.48
40596;BME280;26304;48.794;9.820;2022-09-17T08:10:10;96112.06;;;18.23;57.78
40596;BME280;26304;48.794;9.820;2022-09-17T08:15:57;96116.56;;;18.23;57.47
40596;BME280;26304;48.794;9.820;2022-09-17T08:21:39;96122.97;;;18.29;57.82
40596;BME280;26304;48.794;9.820;2022-09-17T08:27:23;96124.09;;;18.28;57.65
40596;BME280;26304;48.794;9.820;2022-09-17T08:33:05;96130.09;;;18.28;57.50
40596;BME280;26304;48.794;9.820;2022-09-17T08:38:51;96135.78;;;18.27;57.85
40596;BME280;26304;48.794;9.820;2022-09-17T08:44:40;96131.63;;;18.33;57.47
40596;BME280;26304;48.794;9.820;2022-09-17T08:50:26;96132.38;;;18.30;57.71
40596;BME280;26304;48.794;9.820;2022-09-17T08:56:15;96132.75;;;18.32;57.67
40596;BME280;26304;48.794;9.820;2022-09-17T09:02:09;96130.91;;;18.40;57.38
40596;BME280;26304;48.794;9.820;2022-09-17T09:08:02;96132.38;;;18.37;57.76
40596;BME280;26304;48.794;9.820;2022-09-17T09:13:49;96142.91;;;18.37;57.39
40596;BME280;26304;48.794;9.820;2022-09-17T09:19:41;96141.41;;;18.36;57.89
40596;BME280;26304;48.794;9.820;2022-09-17T09:25:25;96133.91;;;18.38;57.81
40596;BME280;26304;48.794;9.820;2022-09-17T09:31:19;96143.69;;;18.41;57.65
40596;BME280;26304;48.794;9.820;2022-09-17T09:37:12;96150.09;;;18.55;57.79
40596;BME280;26304;48.794;9.820;2022-09-17T09:43:00;96152.69;;;18.44;58.08
40596;BME280;26304;48.794;9.820;2022-09-17T09:48:51;96151.94;;;18.40;57.79
40596;BME280;26304;48.794;9.820;2022-09-17T09:54:44;96144.44;;;18.45;57.37
40596;BME280;26304;48.794;9.820;2022-09-17T10:00:35;96138.44;;;18.56;57.79
40596;BME280;26304;48.794;9.820;2022-09-17T10:06:18;96140.28;;;18.55;57.53
40596;BME280;26304;48.794;9.820;2022-09-17T10:12:05;96140.69;;;18.50;57.78
40596;BME280;26304;48.794;9.820;2022-09-17T10:18:16;96143.69;;;18.52;58.04
40596;BME280;26304;48.794;9.820;2022-09-17T10:23:59;96145.22;;;18.78;57.72
40596;BME280;26304;48.794;9.820;2022-09-17T10:29:46;96153.53;;;18.87;57.59
40596;BME280;26304;48.794;9.820;2022-09-17T10:35:29;96150.88;;;18.95;57.55
40596;BME280;26304;48.794;9.820;2022-09-17T10:41:18;96147.47;;;18.98;58.05
40596;BME280;26304;48.794;9.820;2022-09-17T10:47:05;96141.47;;;19.01;57.90
40596;BME280;26304;48.794;9.820;2022-09-17T10:52:50;96147.09;;;19.14;57.55
40596;BME280;26304;48.794;9.820;2022-09-17T10:58:46;96148.59;;;19.18;57.81
40596;BME280;26304;48.794;9.820;2022-09-17T11:04:41;96136.91;;;19.16;57.53
40596;BME280;26304;48.794;9.820;2022-09-17T11:10:35;96130.16;;;19.04;58.24
40596;BME280;26304;48.794;9.820;2022-09-17T11:16:33;96133.53;;;19.26;58.23
40596;BME280;26304;48.794;9.820;2022-09-17T11:22:22;96125.63;;;19.19;59.00
40596;BME280;26304;48.794;9.820;2022-09-17T11:28:22;96119.97;;;19.28;58.97
40596;BME280;26304;48.794;9.820;2022-09-17T11:34:21;96120.31;;;19.33;58.96
40596;BME280;26304;48.794;9.820;2022-09-17T11:40:13;96119.56;;;19.33;59.08
40596;BME280;26304;48.794;9.820;2022-09-17T11:45:59;96128.97;;;19.41;58.97
40596;BME280;26304;48.794;9.820;2022-09-17T11:51:48;96130.03;;;19.54;59.67
40596;BME280;26304;48.794;9.820;2022-09-17T11:57:36;96120.25;;;19.58;59.81
40596;BME280;26304;48.794;9.820;2022-09-17T12:03:26;96120.97;;;19.59;59.15
40596;BME280;26304;48.794;9.820;2022-09-17T12:09:14;96118.75;;;19.54;59.67
40596;BME280;26304;48.794;9.820;2022-09-17T12:15:05;96092.75;;;19.52;59.23
40596;BME280;26304;48.794;9.820;2022-09-17T12:20:50;96098.41;;;19.54;59.57
40596;BME280;26304;48.794;9.820;2022-09-17T12:26:51;96107.47;;;19.53;59.60
40596;BME280;26304;48.794;9.820;2022-09-17T12:32:54;96104.06;;;19.56;59.73
40596;BME280;26304;48.794;9.820;2022-09-17T12:38:50;96101.03;;;19.62;59.96
40596;BME280;26304;48.794;9.820;2022-09-17T12:45:06;96096.47;;;19.76;59.64
40596;BME280;26304;48.794;9.820;2022-09-17T12:51:06;96096.06;;;19.74;59.88
40596;BME280;26304;48.794;9.820;2022-09-17T12:56:56;96095.38;;;19.63;59.36
40596;BME280;26304;48.794;9.820;2022-09-17T13:02:47;96091.66;;;19.53;59.62
40596;BME280;26304;48.794;9.820;2022-09-17T13:09:02;96087.53;;;19.41;59.57
40596;BME280;26304;48.794;9.820;2022-09-17T13:15:05;96087.94;;;19.36;59.55
40596;BME280;26304;48.794;9.820;2022-09-17T13:20:59;96103.78;;;19.29;59.37
40596;BME280;26304;48.794;9.820;2022-09-17T13:26:45;96150.44;;;19.29;59.68
40596;BME280;26304;48.794;9.820;2022-09-17T13:32:47;96141.41;;;19.22;59.50
40596;BME280;26304;48.794;9.820;2022-09-17T13:38:39;96116.97;;;19.18;59.52
40596;BME280;26304;48.794;9.820;2022-09-17T13:44:24;96119.59;;;19.18;59.57
40596;BME280;26304;48.794;9.820;2022-09-17T13:50:09;96113.59;;;19.11;59.74
40596;BME280;26304;48.794;9.820;2022-09-17T13:55:54;96100.78;;;19.09;59.53
40596;BME280;26304;48.794;9.820;2022-09-17T14:08:12;96100.78;;;19.09;59.51
40596;BME280;26304;48.794;9.820;2022-09-17T14:13:55;96104.19;;;19.13;59.25
40596;BME280;26304;48.794;9.820;2022-09-17T14:19:43;96103.44;;;19.16;59.33
40596;BME280;26304;48.794;9.820;2022-09-17T14:25:35;96107.16;;;19.19;59.03
40596;BME280;26304;48.794;9.820;2022-09-17T14:31:26;96104.53;;;19.22;58.84
40596;BME280;26304;48.794;9.820;2022-09-17T14:37:12;96110.53;;;19.27;58.92
40596;BME280;26304;48.794;9.820;2022-09-17T14:42:58;96101.13;;;19.26;58.71
40596;BME280;26304;48.794;9.820;2022-09-17T14:48:40;96103.03;;;19.21;58.87
40596;BME280;26304;48.794;9.820;2022-09-17T14:54:24;96099.25;;;19.22;58.84
40596;BME280;26304;48.794;9.820;2022-09-17T15:00:15;96089.81;;;19.29;58.86
40596;BME280;26304;48.794;9.820;2022-09-17T15:05:58;96094.34;;;19.32;58.63
40596;BME280;26304;48.794;9.820;2022-09-17T15:11:41;96093.94;;;19.37;58.64
40596;BME280;26304;48.794;9.820;2022-09-17T15:17:28;96086.16;;;18.72;58.11
40596;BME280;26304;48.794;9.820;2022-09-17T15:23:15;96094.78;;;18.26;57.40
40596;BME280;26304;48.794;9.820;2022-09-17T15:29:01;96094.03;;;18.61;56.32
40596;BME280;26304;48.794;9.820;2022-09-17T15:35:13;96087.97;;;19.11;55.84
40596;BME280;26304;48.794;9.820;2022-09-17T15:41:17;96080.03;;;19.26;55.86
40596;BME280;26304;48.794;9.820;2022-09-17T15:47:33;96087.59;;;19.23;56.11
40596;BME280;26304;48.794;9.820;2022-09-17T15:53:22;96084.19;;;19.30;55.90
40596;BME280;26304;48.794;9.820;2022-09-17T15:59:21;96081.94;;;19.32;56.34
40596;BME280;26304;48.794;9.820;2022-09-17T16:11:29;96091.72;;;19.21;57.29
40596;BME280;26304;48.794;9.820;2022-09-17T16:17:27;96081.91;;;19.36;57.69
40596;BME280;26304;48.794;9.820;2022-09-17T16:23:13;96080.75;;;19.44;57.99
40596;BME280;26304;48.794;9.820;2022-09-17T16:29:02;96087.50;;;19.49;58.40
40596;BME280;26304;48.794;9.820;2022-09-17T16:34:46;96093.50;;;19.53;58.26
40596;BME280;26304;48.794;9.820;2022-09-17T16:40:28;96093.84;;;19.62;58.12
40596;BME280;26304;48.794;9.820;2022-09-17T16:46:12;96093.84;;;19.62;58.45
40596;BME280;26304;48.794;9.820;2022-09-17T16:51:54;96104.41;;;19.62;58.26
40596;BME280;26304;48.794;9.820;2022-09-17T16:57:37;96102.50;;;19.66;58.55
40596;BME280;26304;48.794;9.820;2022-09-17T17:03:20;96096.84;;;19.68;58.66
40596;BME280;26304;48.794;9.820;2022-09-17T17:09:03;96095.03;;;19.54;58.51
40596;BME280;26304;48.794;9.820;2022-09-17T17:14:45;96092.38;;;19.57;57.83
40596;BME280;26304;48.794;9.820;2022-09-17T17:20:33;96081.78;;;19.65;58.16
40596;BME280;26304;48.794;9.820;2022-09-17T17:26:16;96089.66;;;19.79;57.69
40596;BME280;26304;48.794;9.820;2022-09-17T17:31:58;96087.81;;;19.65;58.29
40596;BME280;26304;48.794;9.820;2022-09-17T17:37:42;96099.88;;;19.66;58.14
40596;BME280;26304;48.794;9.820;2022-09-17T17:43:24;96106.31;;;19.54;58.37
40596;BME280;26304;48.794;9.820;2022-09-17T17:49:07;96103.63;;;19.72;57.63
40596;BME280;26304;48.794;9.820;2022-09-17T17:54:51;96111.88;;;19.85;58.02
40596;BME280;26304;48.794;9.820;2022-09-17T18:00:33;96134.50;;;19.79;58.00
40596;BME280;26304;48.794;9.820;2022-09-17T18:06:15;96157.13;;;19.76;58.62
40596;BME280;26304;48.794;9.820;2022-09-17T18:11:59;96156.34;;;19.69;58.07
40596;BME280;26304;48.794;9.820;2022-09-17T18:17:42;96157.13;;;19.76;57.89
40596;BME280;26304;48.794;9.820;2022-09-17T18:23:24;96173.69;;;19.70;59.12
40596;BME280;26304;48.794;9.820;2022-09-17T18:29:08;96179.72;;;19.74;59.17
40596;BME280;26304;48.794;9.820;2022-09-17T18:34:51;96181.63;;;19.77;58.76
40596;BME280;26304;48.794;9.820;2022-09-17T18:40:34;96177.44;;;19.83;58.87
40596;BME280;26304;48.794;9.820;2022-09-17T18:46:18;96184.97;;;19.88;58.67
40596;BME280;26304;48.794;9.820;2022-09-17T18:52:00;96189.88;;;19.86;58.74
40596;BME280;26304;48.794;9.820;2022-09-17T18:57:43;96207.59;;;19.75;59.40
40596;BME280;26304;48.794;9.820;2022-09-17T19:03:29;96209.13;;;19.62;59.06
40596;BME280;26304;48.794;9.820;2022-09-17T19:09:13;96212.84;;;19.75;59.17
40596;BME280;26304;48.794;9.820;2022-09-17T19:14:55;96231.72;;;19.81;59.76
40596;BME280;26304;48.794;9.820;2022-09-17T19:20:39;96223.81;;;19.77;58.96
40596;BME280;26304;48.794;9.820;2022-09-17T19:26:23;96220.41;;;19.73;60.01
40596;BME280;26304;48.794;9.820;2022-09-17T19:32:06;96230.97;;;19.76;59.52
40596;BME280;26304;48.794;9.820;2022-09-17T19:37:50;96243.03;;;19.77;59.73
40596;BME280;26304;48.794;9.820;2022-09-17T19:43:33;96247.91;;;19.72;59.96
40596;BME280;26304;48.794;9.820;2022-09-17T19:49:15;96263.38;;;19.70;59.97
40596;BME280;26304;48.794;9.820;2022-09-17T19:54:59;96267.13;;;19.69;60.14
40596;BME280;26304;48.794;9.820;2022-09-17T20:00:42;96266.41;;;19.50;60.00
40596;BME280;26304;48.794;9.820;2022-09-17T20:06:24;96273.94;;;19.77;59.28
40596;BME280;26304;48.794;9.820;2022-09-17T20:12:08;96266.00;;;19.73;59.71
40596;BME280;26304;48.794;9.820;2022-09-17T20:17:51;96266.38;;;19.72;59.85
40596;BME280;26304;48.794;9.820;2022-09-17T20:23:33;96286.00;;;19.82;59.65
40596;BME280;26304;48.794;9.820;2022-09-17T20:29:17;96285.22;;;19.74;60.24
40596;BME280;26304;48.794;9.820;2022-09-17T20:34:59;96294.28;;;19.66;59.97
40596;BME280;26304;48.794;9.820;2022-09-17T20:40:42;96291.25;;;19.71;59.63
40596;BME280;26304;48.794;9.820;2022-09-17T20:46:26;96297.28;;;19.53;58.78
40596;BME280;26304;48.794;9.820;2022-09-17T20:52:08;96283.34;;;19.53;59.40
40596;BME280;26304;48.794;9.820;2022-09-17T20:57:51;96285.63;;;19.33;59.49
40596;BME280;26304;48.794;9.820;2022-09-17T21:03:35;96291.28;;;19.28;59.27
40596;BME280;26304;48.794;9.820;2022-09-17T21:09:18;96293.50;;;19.22;59.45
40596;BME280;26304;48.794;9.820;2022-09-17T21:15:01;96285.25;;;19.16;58.21
40596;BME280;26304;48.794;9.820;2022-09-17T21:20:45;96302.16;;;19.01;57.69
40596;BME280;26304;48.794;9.820;2022-09-17T21:26:27;96298.34;;;18.84;57.38
40596;BME280;26304;48.794;9.820;2022-09-17T21:32:10;96315.28;;;18.83;57.46
40596;BME280;26304;48.794;9.820;2022-09-17T21:37:54;96318.22;;;18.67;56.83
40596;BME280;26304;48.794;9.820;2022-09-17T21:43:36;96314.44;;;18.64;57.04
40596;BME280;26304;48.794;9.820;2022-09-17T21:49:19;96321.88;;;18.44;56.66
40596;BME280;26304;48.794;9.820;2022-09-17T21:55:03;96317.34;;;18.34;56.36
40596;BME280;26304;48.794;9.820;2022-09-17T22:00:46;96327.16;;;18.44;56.26
40596;BME280;26304;48.794;9.820;2022-09-17T22:06:30;96314.69;;;18.30;56.41
40596;BME280;26304;48.794;9.820;2022-09-17T22:12:14;96325.66;;;18.43;55.86
40596;BME280;26304;48.794;9.820;2022-09-17T22:17:56;96325.28;;;18.45;55.61
40596;BME280;26304;48.794;9.820;2022-09-17T22:23:39;96335.41;;;18.36;55.56
40596;BME280;26304;48.794;9.820;2022-09-17T22:29:23;96331.25;;;18.34;55.69
40596;BME280;26304;48.794;9.820;2022-09-17T22:35:06;96334.97;;;18.26;55.70
40596;BME280;26304;48.794;9.820;2022-09-17T22:40:49;96334.25;;;18.29;55.33
40596;BME280;26304;48.794;9.820;2022-09-17T22:46:34;96325.22;;;18.27;55.43
40596;BME280;26304;48.794;9.820;2022-09-17T22:52:19;96333.84;;;18.24;55.42
40596;BME280;26304;48.794;9.820;2022-09-17T22:58:01;96319.47;;;18.10;55.19
40596;BME280;26304;48.794;9.820;2022-09-17T23:03:45;96313.47;;;18.10;55.25
40596;BME280;26304;48.794;9.820;2022-09-17T23:09:28;96322.13;;;18.14;54.90
40596;BME280;26304;48.794;9.820;2022-09-17T23:15:11;96314.19;;;18.07;55.43
40596;BME280;26304;48.794;9.820;2022-09-17T23:20:59;96313.09;;;18.11;55.12
40596;BME280;26304;48.794;9.820;2022-09-17T23:26:41;96317.91;;;17.99;55.64
40596;BME280;26304;48.794;9.820;2022-09-17T23:32:24;96323.56;;;18.01;55.75
40596;BME280;26304;48.794;9.820;2022-09-17T23:38:07;96321.19;;;17.85;55.70
40596;BME280;26304;48.794;9.820;2022-09-17T23:43:51;96314.00;;;17.78;55.52
40596;BME280;26304;48.794;9.820;2022-09-17T23:49:34;96312.84;;;17.75;55.54
40596;BME280;26304;48.794;9.820;2022-09-17T23:55:17;96311.72;;;17.73;55.82
